Monarch, MT (59463)

3:34 AM MST on February 12, 2016 (GMT -0700)
Malmstrom AFB | | Change Station
CLOSE
Current Station
Airport
Location: Malmstrom AFB,
Elevation: 3527 ft
Nearby Weather Stations

Elev 3527 ft 47.50 °N, 111.19 °W | Updated 36 minutes ago

Overcast
Overcast
30 °F
Feels Like 24 °F
N
6
Wind Variable Wind from East

Today
High -- | Low -- °F
--% Chance of Precip.
Yesterday
High -- | Low -- °F
Precip. -- in
Pressure 30.33 in
Visibility 10.0 miles
Clouds Mostly Cloudy 8000 ft
Mostly Cloudy 9500 ft
Windchill 24 °F
Dew Point 28 °F
Humidity 91%
Rainfall 0.00 in
Snow Depth Not available.
7:33 AM 5:42 PM
Waxing Crescent, 19% visible
METAR KGFA 120958Z AUTO 08005KT 10SM BKN080 BKN095 M01/M02 A3026 RMK AO2 SLP271 T10091022 TSNO $
Pressure 30.33 in
Visibility 10.0 miles
Clouds Mostly Cloudy 8000 ft
Mostly Cloudy 9500 ft
Windchill 24 °F
Dew Point 28 °F
Humidity 91%
Rainfall 0.00 in
Snow Depth Not available.
7:33 AM 5:42 PM
Waxing Crescent, 19% visible
METAR KGFA 120958Z AUTO 08005KT 10SM BKN080 BKN095 M01/M02 A3026 RMK AO2 SLP271 T10091022 TSNO $

10-Day Weather Forecast

Almanac

Astronomy

Feb. 12, 2016 Rise Set
Actual Time
Civil Twilight
Nautical Twilight
Astronomical Twilight
Moon
Length of Visible Light
Length of Day
Tomorrow will be .
, % of the Moon is Illuminated

Today's Extremes

State Highs State Lows

Community

WunderPhotos

Upload Photos

1,892,289 photos uploaded!

WunderBlog® & News

Nearby

Air Quality

  Air Quality AQ Index Pollutant
Not available.

Snow Depth

Station Depth Elevation

Earthquake Activity

City Distance Mag. Time & Date
Minimum magnitude displayed is 2.5.

Coastal Water Temperatures

Place Temperature

Stations

Nearby Weather Stations

Station Location Temp. Windchill Dew Point Humidity Wind Precip. Elev Updated Type
                   

Watches & Warnings

There are currently no watches in effect.